Time;durP1;ratioP1;P1;durP2;ratioP2;P2;SDS_P1;SDS_P2;PMS_P1;PMS_P2;Temp;Humidity;BMP_temperature;BMP_pressure;BME280_temperature;BME280_humidity;BME280_pressure;Samples;Min_cycle;Max_cycle;Signal;HPM_P1;HPM_P2
2021/06/25 00:02:15;;;;;;;;;;;14.20;71.90;;;;;;5014255;28;20313;-67
2021/06/25 00:04:40;;;;;;;;;;;14.10;72.00;;;;;;5014977;28;19913;-68
2021/06/25 00:07:06;;;;;;;;;;;14.10;72.10;;;;;;5014456;28;19917;-67
2021/06/25 00:09:32;;;;;;;;;;;14.10;72.20;;;;;;4996255;28;20382;-66
2021/06/25 00:11:58;;;;;;;;;;;14.00;72.30;;;;;;4996889;28;20051;-67
2021/06/25 00:14:23;;;;;;;;;;;14.00;72.40;;;;;;5013990;28;20016;-67
2021/06/25 00:16:50;;;;;;;;;;;14.00;72.50;;;;;;5013437;28;20297;-67
2021/06/25 00:19:15;;;;;;;;;;;13.90;72.50;;;;;;5014073;28;19917;-67
2021/06/25 00:21:41;;;;;;;;;;;13.80;72.60;;;;;;5013951;28;19925;-67
2021/06/25 00:24:07;;;;;;;;;;;13.70;72.80;;;;;;4994693;28;19917;-67
2021/06/25 00:26:32;;;;;;;;;;;13.70;73.10;;;;;;5013944;28;19917;-67
2021/06/25 00:28:58;;;;;;;;;;;13.70;73.30;;;;;;5013299;28;20000;-67
2021/06/25 00:31:23;;;;;;;;;;;13.60;73.30;;;;;;4996312;28;19924;-67
2021/06/25 00:33:49;;;;;;;;;;;13.60;73.60;;;;;;4996007;28;19922;-66
2021/06/25 00:36:14;;;;;;;;;;;13.50;73.70;;;;;;5012114;28;19917;-66
2021/06/25 00:38:40;;;;;;;;;;;13.50;73.90;;;;;;4995955;28;19968;-67
2021/06/25 00:41:05;;;;;;;;;;;13.50;74.20;;;;;;5013717;28;20432;-66
2021/06/25 00:43:31;;;;;;;;;;;13.40;74.30;;;;;;5013469;28;20301;-65
2021/06/25 00:45:56;;;;;;;;;;;13.40;74.50;;;;;;4996089;28;20221;-66
2021/06/25 00:48:22;;;;;;;;;;;13.30;74.60;;;;;;5013254;28;20007;-66
2021/06/25 00:50:48;;;;;;;;;;;13.30;74.80;;;;;;5013166;28;19918;-65
2021/06/25 00:53:13;;;;;;;;;;;13.20;74.90;;;;;;5013376;28;19928;-65
2021/06/25 00:55:42;;;;;;;;;;;13.10;75.10;;;;;;4995536;28;19914;-65
2021/06/25 00:58:11;;;;;;;;;;;13.10;75.50;;;;;;5012943;28;20374;-65
2021/06/25 01:00:37;;;;;;;;;;;13.10;75.70;;;;;;5012793;28;19917;-66
2021/06/25 01:03:03;;;;;;;;;;;13.00;75.70;;;;;;4995541;28;19924;-65
2021/06/25 01:05:28;;;;;;;;;;;12.90;75.80;;;;;;4979593;28;19918;-65
2021/06/25 01:07:54;;;;;;;;;;;12.90;76.10;;;;;;4994986;28;20370;-65
2021/06/25 01:10:20;;;;;;;;;;;12.80;76.30;;;;;;5013128;28;20009;-65
2021/06/25 01:12:45;;;;;;;;;;;12.80;76.60;;;;;;5012997;28;19929;-65
2021/06/25 01:15:11;;;;;;;;;;;12.70;76.70;;;;;;5012659;28;20374;-65
2021/06/25 01:17:41;;;;;;;;;;;12.70;76.80;;;;;;4995404;28;19983;-65
2021/06/25 01:20:08;;;;;;;;;;;12.70;77.00;;;;;;5012572;28;19918;-65
2021/06/25 01:22:34;;;;;;;;;;;12.60;77.20;;;;;;4995350;28;19922;-65
2021/06/25 01:25:11;;;;;;;;;;;12.60;77.40;;;;;;5012920;28;20396;-65
2021/06/25 01:27:37;;;;;;;;;;;12.60;77.70;;;;;;4994346;28;19929;-65
2021/06/25 01:30:04;;;;;;;;;;;12.60;77.80;;;;;;5012673;28;19924;-65
2021/06/25 01:32:30;;;;;;;;;;;12.50;77.90;;;;;;5012299;28;19914;-65
2021/06/25 01:34:55;;;;;;;;;;;12.50;78.00;;;;;;5011075;28;19925;-65
2021/06/25 01:37:21;;;;;;;;;;;12.60;78.40;;;;;;4994927;28;19917;-65
2021/06/25 01:39:48;;;;;;;;;;;12.50;78.50;;;;;;5012287;28;19918;-65
2021/06/25 01:42:14;;;;;;;;;;;12.50;78.70;;;;;;5012492;28;20341;-65
2021/06/25 01:44:40;;;;;;;;;;;12.50;78.90;;;;;;5012327;28;20052;-65
2021/06/25 01:47:05;;;;;;;;;;;12.40;78.90;;;;;;5011719;28;19924;-64
2021/06/25 01:49:32;;;;;;;;;;;12.40;79.10;;;;;;4994990;28;20301;-65
2021/06/25 01:51:58;;;;;;;;;;;12.40;79.30;;;;;;5012034;28;20388;-65
2021/06/25 01:54:23;;;;;;;;;;;12.30;79.30;;;;;;5012403;28;19918;-65
2021/06/25 01:56:49;;;;;;;;;;;12.30;79.60;;;;;;5010864;28;19917;-65
2021/06/25 01:59:14;;;;;;;;;;;12.30;79.80;;;;;;4994150;28;19924;-65
2021/06/25 02:01:40;;;;;;;;;;;12.30;79.90;;;;;;5012331;28;20395;-65
2021/06/25 02:04:06;;;;;;;;;;;12.30;80.00;;;;;;5012178;28;19921;-65
2021/06/25 02:06:31;;;;;;;;;;;12.20;80.10;;;;;;5011733;28;19990;-65
2021/06/25 02:08:57;;;;;;;;;;;12.20;80.20;;;;;;5011952;28;19918;-65
2021/06/25 02:11:23;;;;;;;;;;;12.20;80.40;;;;;;5011589;28;20341;-65
2021/06/25 02:13:49;;;;;;;;;;;12.10;80.40;;;;;;5011996;28;20008;-65
2021/06/25 02:16:15;;;;;;;;;;;12.10;80.60;;;;;;5012164;28;20341;-65
2021/06/25 02:18:40;;;;;;;;;;;12.10;80.70;;;;;;4993749;28;20017;-65
2021/06/25 02:21:06;;;;;;;;;;;12.00;80.90;;;;;;5011929;28;20408;-65
2021/06/25 02:23:32;;;;;;;;;;;12.00;81.00;;;;;;4993837;28;20000;-65
2021/06/25 02:25:57;;;;;;;;;;;12.00;81.20;;;;;;5011925;28;19925;-65
2021/06/25 02:28:23;;;;;;;;;;;11.90;81.30;;;;;;5011505;28;19925;-65
2021/06/25 02:30:49;;;;;;;;;;;11.90;81.50;;;;;;5011455;28;19929;-65
2021/06/25 02:33:14;;;;;;;;;;;11.90;81.60;;;;;;5011773;28;20388;-65
2021/06/25 02:35:40;;;;;;;;;;;11.80;81.70;;;;;;5011840;28;19933;-65
2021/06/25 02:38:05;;;;;;;;;;;11.80;81.90;;;;;;5011208;28;20004;-65
2021/06/25 02:40:31;;;;;;;;;;;11.80;82.00;;;;;;5011831;28;19925;-65
2021/06/25 02:42:57;;;;;;;;;;;11.80;82.20;;;;;;5010974;28;19929;-65
2021/06/25 02:45:22;;;;;;;;;;;11.80;82.40;;;;;;5011986;28;19924;-65
2021/06/25 02:47:48;;;;;;;;;;;11.80;82.40;;;;;;5013732;28;19918;-65
2021/06/25 02:50:14;;;;;;;;;;;11.80;82.50;;;;;;5015464;28;19917;-65
2021/06/25 02:52:41;;;;;;;;;;;11.80;82.50;;;;;;5015710;28;19953;-65
2021/06/25 02:55:07;;;;;;;;;;;11.70;82.50;;;;;;5015613;28;19918;-65
2021/06/25 02:57:32;;;;;;;;;;;11.70;82.70;;;;;;5015049;28;19953;-65
2021/06/25 02:59:58;;;;;;;;;;;11.60;82.80;;;;;;4998035;28;19976;-65
2021/06/25 03:02:24;;;;;;;;;;;11.60;83.00;;;;;;5014920;28;20263;-65
2021/06/25 03:04:50;;;;;;;;;;;11.60;83.10;;;;;;5015513;28;19948;-66
2021/06/25 03:07:15;;;;;;;;;;;11.60;83.20;;;;;;5015257;28;19968;-65
2021/06/25 03:09:41;;;;;;;;;;;11.50;83.30;;;;;;4997497;28;19968;-65
2021/06/25 03:12:07;;;;;;;;;;;11.50;83.50;;;;;;4997692;28;20289;-65
2021/06/25 03:14:33;;;;;;;;;;;11.50;83.60;;;;;;5014088;28;19972;-65
2021/06/25 03:16:58;;;;;;;;;;;11.50;83.70;;;;;;5014665;28;19918;-65
2021/06/25 03:19:24;;;;;;;;;;;11.50;83.80;;;;;;5015290;28;19918;-65
2021/06/25 03:21:49;;;;;;;;;;;11.50;83.90;;;;;;4997238;28;19917;-65
2021/06/25 03:24:15;;;;;;;;;;;11.50;84.00;;;;;;4997420;28;19921;-65
2021/06/25 03:26:40;;;;;;;;;;;11.50;84.20;;;;;;4997399;28;20293;-65
2021/06/25 03:29:06;;;;;;;;;;;11.50;84.30;;;;;;5014501;28;20396;-65
2021/06/25 03:31:32;;;;;;;;;;;11.60;84.50;;;;;;5015164;28;19918;-65
2021/06/25 03:33:57;;;;;;;;;;;11.60;84.50;;;;;;4997417;28;20285;-65
2021/06/25 03:36:23;;;;;;;;;;;11.70;84.60;;;;;;5014489;28;19917;-65
2021/06/25 03:38:48;;;;;;;;;;;11.70;84.60;;;;;;5014654;28;19924;-65
2021/06/25 03:41:14;;;;;;;;;;;11.80;84.60;;;;;;4997073;28;19921;-65
2021/06/25 03:43:39;;;;;;;;;;;11.80;84.70;;;;;;5014425;28;20233;-65
2021/06/25 03:46:05;;;;;;;;;;;11.80;84.80;;;;;;5014783;28;19926;-65
2021/06/25 03:48:30;;;;;;;;;;;11.90;84.90;;;;;;5014005;28;20352;-65
2021/06/25 03:50:56;;;;;;;;;;;11.90;85.00;;;;;;4997066;28;19941;-65
2021/06/25 03:53:22;;;;;;;;;;;11.90;85.10;;;;;;5014577;28;19967;-66
2021/06/25 03:58:31;;;;;;;;;;;12.00;85.20;;;;;;5014201;28;20005;-66
2021/06/25 04:00:57;;;;;;;;;;;12.10;85.20;;;;;;5014047;28;20350;-66
2021/06/25 04:03:23;;;;;;;;;;;12.20;85.20;;;;;;5014322;28;19921;-66
2021/06/25 04:05:48;;;;;;;;;;;12.20;85.20;;;;;;5013928;28;20004;-66
2021/06/25 04:08:14;;;;;;;;;;;12.20;85.20;;;;;;5014055;28;19932;-66
2021/06/25 04:10:39;;;;;;;;;;;12.30;85.20;;;;;;4996545;28;19922;-66
2021/06/25 04:13:05;;;;;;;;;;;12.30;85.20;;;;;;5013749;28;19929;-66
2021/06/25 04:15:31;;;;;;;;;;;12.30;85.20;;;;;;5014116;28;19917;-66
2021/06/25 04:17:57;;;;;;;;;;;12.40;85.30;;;;;;5014042;28;20377;-66
2021/06/25 04:20:22;;;;;;;;;;;12.40;85.30;;;;;;5013604;28;19917;-67
2021/06/25 04:22:48;;;;;;;;;;;12.50;85.40;;;;;;5013948;28;19921;-66
2021/06/25 04:25:13;;;;;;;;;;;12.50;85.40;;;;;;5013451;28;19923;-66
2021/06/25 04:27:39;;;;;;;;;;;12.60;85.60;;;;;;5013852;28;19948;-65
2021/06/25 04:30:05;;;;;;;;;;;12.60;85.70;;;;;;5013903;28;19917;-65
2021/06/25 04:32:31;;;;;;;;;;;12.70;85.80;;;;;;5013322;28;19992;-65
2021/06/25 04:34:57;;;;;;;;;;;12.80;85.70;;;;;;4996226;28;19921;-65
2021/06/25 04:37:23;;;;;;;;;;;12.90;85.70;;;;;;5013570;28;19926;-65
2021/06/25 04:39:48;;;;;;;;;;;13.00;85.80;;;;;;5013289;28;19917;-66
2021/06/25 04:42:14;;;;;;;;;;;13.00;85.70;;;;;;5013620;28;20301;-65
2021/06/25 04:44:40;;;;;;;;;;;13.10;85.80;;;;;;4995583;28;19922;-65
2021/06/25 04:47:06;;;;;;;;;;;13.20;85.80;;;;;;5013241;28;19967;-65
2021/06/25 04:49:32;;;;;;;;;;;13.30;85.90;;;;;;5013508;28;19925;-65
2021/06/25 04:51:58;;;;;;;;;;;13.40;85.90;;;;;;5013236;28;19924;-65
2021/06/25 04:54:24;;;;;;;;;;;13.60;86.00;;;;;;4995951;28;19917;-65
2021/06/25 04:56:49;;;;;;;;;;;13.70;86.00;;;;;;5013337;28;19925;-65
2021/06/25 04:59:15;;;;;;;;;;;13.80;86.10;;;;;;5012937;28;20378;-65
2021/06/25 05:01:40;;;;;;;;;;;14.00;86.10;;;;;;5013362;28;19917;-65
2021/06/25 05:04:06;;;;;;;;;;;14.20;86.00;;;;;;5012780;28;19963;-65
2021/06/25 05:06:31;;;;;;;;;;;14.30;86.00;;;;;;4995807;28;19918;-65
2021/06/25 05:08:57;;;;;;;;;;;14.50;85.80;;;;;;5012748;28;19924;-65
2021/06/25 05:11:22;;;;;;;;;;;14.70;86.20;;;;;;5012138;28;19921;-64
2021/06/25 05:13:48;;;;;;;;;;;14.90;85.60;;;;;;5013075;28;19941;-65
2021/06/25 05:16:14;;;;;;;;;;;15.10;85.20;;;;;;4995413;28;19940;-65
2021/06/25 05:18:39;;;;;;;;;;;15.30;85.10;;;;;;5012308;28;19917;-65
2021/06/25 05:21:05;;;;;;;;;;;15.40;84.70;;;;;;4995450;28;19921;-65
2021/06/25 05:23:30;;;;;;;;;;;15.50;84.30;;;;;;5012294;28;19928;-66
2021/06/25 05:25:56;;;;;;;;;;;15.70;84.20;;;;;;5012872;28;19918;-65
2021/06/25 05:28:22;;;;;;;;;;;15.80;83.60;;;;;;5012580;28;19941;-65
2021/06/25 05:30:47;;;;;;;;;;;15.90;83.20;;;;;;4994930;28;19917;-65
2021/06/25 05:33:13;;;;;;;;;;;16.00;83.10;;;;;;5012583;28;20296;-65
2021/06/25 05:35:39;;;;;;;;;;;16.10;82.70;;;;;;5012769;28;19918;-65
2021/06/25 05:38:11;;;;;;;;;;;16.20;82.50;;;;;;5011408;28;19926;-65
2021/06/25 05:40:36;;;;;;;;;;;16.40;82.40;;;;;;4994945;28;19939;-65
2021/06/25 05:43:05;;;;;;;;;;;16.60;81.20;;;;;;5011811;28;20377;-65
2021/06/25 05:45:32;;;;;;;;;;;16.80;81.30;;;;;;4994877;28;19917;-66
2021/06/25 05:47:57;;;;;;;;;;;17.40;83.50;;;;;;5012148;28;19921;-65
2021/06/25 05:50:23;;;;;;;;;;;18.20;84.60;;;;;;5011959;28;20039;-65
2021/06/25 05:52:49;;;;;;;;;;;18.80;83.00;;;;;;5012259;28;20370;-66
2021/06/25 05:55:15;;;;;;;;;;;19.40;80.50;;;;;;5011956;28;19917;-65
2021/06/25 05:57:41;;;;;;;;;;;19.90;79.70;;;;;;5011928;28;20354;-66
2021/06/25 06:00:07;;;;;;;;;;;20.30;77.60;;;;;;5012133;28;20373;-66
2021/06/25 06:02:34;;;;;;;;;;;20.90;77.20;;;;;;5011850;28;19922;-65
2021/06/25 06:05:00;;;;;;;;;;;22.00;78.40;;;;;;5012119;28;20306;-66
2021/06/25 06:07:26;;;;;;;;;;;23.50;77.70;;;;;;5011356;28;19972;-67
2021/06/25 06:09:52;;;;;;;;;;;24.70;74.50;;;;;;5012057;28;19950;-66
2021/06/25 06:12:18;;;;;;;;;;;25.90;72.50;;;;;;5011928;28;19917;-66
2021/06/25 06:14:44;;;;;;;;;;;26.90;68.50;;;;;;5011423;28;19952;-67
2021/06/25 06:17:10;;;;;;;;;;;27.50;65.20;;;;;;5011633;28;19953;-67
2021/06/25 06:19:44;;;;;;;;;;;28.10;62.50;;;;;;5011818;28;20395;-67
2021/06/25 06:33:11;;;;;;;;;;;28.30;50.10;;;;;;5011708;28;20401;-66
2021/06/25 06:35:37;;;;;;;;;;;28.40;51.10;;;;;;5011345;28;19920;-67
2021/06/25 06:38:03;;;;;;;;;;;29.10;50.80;;;;;;4993505;28;19996;-67
2021/06/25 06:40:29;;;;;;;;;;;30.00;50.00;;;;;;5011055;28;19917;-67
2021/06/25 06:42:55;;;;;;;;;;;30.60;47.90;;;;;;5033608;23;19929;-62
2021/06/25 06:45:21;;;;;;;;;;;31.00;46.50;;;;;;5030817;28;19944;-62
2021/06/25 06:47:46;;;;;;;;;;;31.30;45.30;;;;;;5009781;28;20052;-62
2021/06/25 06:50:12;;;;;;;;;;;31.50;43.60;;;;;;5011702;28;20277;-62
2021/06/25 06:52:40;;;;;;;;;;;31.70;42.90;;;;;;5011356;28;19925;-62
2021/06/25 06:55:05;;;;;;;;;;;32.10;42.40;;;;;;5011023;28;19926;-63
2021/06/25 06:57:31;;;;;;;;;;;32.70;41.60;;;;;;5009810;28;20086;-62
2021/06/25 06:59:56;;;;;;;;;;;33.30;40.90;;;;;;5010820;28;20419;-62
2021/06/25 07:02:22;;;;;;;;;;;33.80;39.00;;;;;;5011276;28;19917;-62
2021/06/25 07:04:48;;;;;;;;;;;34.00;37.00;;;;;;5010207;28;19924;-63
2021/06/25 07:07:13;;;;;;;;;;;34.50;37.30;;;;;;5010390;28;19921;-63
2021/06/25 07:09:39;;;;;;;;;;;35.30;36.50;;;;;;5011379;28;20326;-63
2021/06/25 07:12:04;;;;;;;;;;;36.10;35.70;;;;;;5011248;28;20362;-64
2021/06/25 07:14:30;;;;;;;;;;;36.60;34.40;;;;;;5010723;28;19917;-63
2021/06/25 07:16:56;;;;;;;;;;;37.00;33.50;;;;;;5010873;28;19918;-63
2021/06/25 07:19:21;;;;;;;;;;;37.30;32.30;;;;;;5009473;28;19923;-63
2021/06/25 07:21:47;;;;;;;;;;;37.80;31.60;;;;;;5011167;28;19918;-64
2021/06/25 07:24:12;;;;;;;;;;;38.30;30.90;;;;;;5011045;28;19921;-63
2021/06/25 07:26:38;;;;;;;;;;;38.70;29.80;;;;;;5010783;28;19922;-63
2021/06/25 07:29:04;;;;;;;;;;;39.20;29.50;;;;;;5026313;28;19971;-64
2021/06/25 07:31:30;;;;;;;;;;;39.30;28.50;;;;;;5010039;28;20369;-63
2021/06/25 07:33:55;;;;;;;;;;;38.00;27.50;;;;;;5012839;28;22178;-64
2021/06/25 07:36:21;;;;;;;;;;;37.00;27.80;;;;;;5014768;28;20433;-63
2021/06/25 07:38:46;;;;;;;;;;;36.80;28.50;;;;;;5012697;28;20417;-63
2021/06/25 07:41:12;;;;;;;;;;;37.00;28.40;;;;;;5015000;28;19918;-63
2021/06/25 07:43:37;;;;;;;;;;;37.50;28.30;;;;;;5014327;28;19931;-64
2021/06/25 07:46:03;;;;;;;;;;;37.40;27.60;;;;;;5014442;28;19925;-63
2021/06/25 07:48:29;;;;;;;;;;;36.50;26.70;;;;;;5014196;28;20000;-63
2021/06/25 07:50:54;;;;;;;;;;;35.70;27.40;;;;;;5014008;28;20124;-63
2021/06/25 07:53:20;;;;;;;;;;;35.00;27.40;;;;;;5013979;28;20008;-62
2021/06/25 07:55:46;;;;;;;;;;;33.80;26.90;;;;;;5014451;28;19932;-62
2021/06/25 07:58:15;;;;;;;;;;;32.60;27.70;;;;;;5013760;28;20369;-63
2021/06/25 08:00:41;;;;;;;;;;;32.50;28.70;;;;;;5014273;28;19917;-63
2021/06/25 08:03:07;;;;;;;;;;;32.90;29.10;;;;;;5014122;28;20036;-62
2021/06/25 08:05:33;;;;;;;;;;;33.30;29.30;;;;;;5013723;28;20334;-63
2021/06/25 08:07:58;;;;;;;;;;;34.00;29.10;;;;;;5013996;28;19917;-63
2021/06/25 08:10:24;;;;;;;;;;;34.50;28.50;;;;;;5013713;28;19921;-63
2021/06/25 08:12:49;;;;;;;;;;;35.10;28.50;;;;;;5013979;28;22302;-62
2021/06/25 08:15:15;;;;;;;;;;;35.90;28.60;;;;;;5014045;28;19941;-62
2021/06/25 08:17:41;;;;;;;;;;;36.80;28.30;;;;;;5013258;28;19930;-64
2021/06/25 08:20:07;;;;;;;;;;;37.40;27.70;;;;;;5013817;28;20278;-63
2021/06/25 08:22:32;;;;;;;;;;;37.60;27.20;;;;;;5013921;28;19913;-63
2021/06/25 08:24:58;;;;;;;;;;;37.70;26.90;;;;;;5011994;28;19928;-64
2021/06/25 08:27:24;;;;;;;;;;;38.00;26.70;;;;;;5029020;28;20392;-64
2021/06/25 08:29:49;;;;;;;;;;;38.50;26.60;;;;;;5011998;28;20274;-64
2021/06/25 08:32:15;;;;;;;;;;;38.60;26.70;;;;;;5013814;28;19979;-63
2021/06/25 08:34:41;;;;;;;;;;;39.20;26.20;;;;;;5013471;28;19972;-65
2021/06/25 08:37:06;;;;;;;;;;;39.70;25.90;;;;;;5028257;28;20001;-65
2021/06/25 08:39:32;;;;;;;;;;;40.40;25.60;;;;;;5013571;28;19928;-64
2021/06/25 08:42:02;;;;;;;;;;;40.50;25.20;;;;;;5012232;28;20297;-64
2021/06/25 08:44:31;;;;;;;;;;;40.40;24.80;;;;;;5012124;28;19922;-68
2021/06/25 08:46:56;;;;;;;;;;;40.40;25.10;;;;;;5013202;28;19921;-67
2021/06/25 08:49:25;;;;;;;;;;;41.20;25.20;;;;;;5013033;28;20441;-65
2021/06/25 08:51:51;;;;;;;;;;;41.60;24.60;;;;;;5013262;28;19988;-65
2021/06/25 08:54:16;;;;;;;;;;;42.00;24.30;;;;;;5013114;28;20385;-65
2021/06/25 08:56:42;;;;;;;;;;;42.10;24.10;;;;;;5012793;28;19918;-64
2021/06/25 08:59:07;;;;;;;;;;;42.50;24.10;;;;;;5013174;28;19979;-64
2021/06/25 09:01:36;;;;;;;;;;;42.90;23.60;;;;;;5012739;28;19924;-65
2021/06/25 09:04:02;;;;;;;;;;;41.80;23.30;;;;;;5013026;28;19917;-65
2021/06/25 09:06:28;;;;;;;;;;;40.20;23.30;;;;;;5011431;28;19975;-64
2021/06/25 09:09:11;;;;;;;;;;;38.90;24.40;;;;;;5012416;28;20012;-64
2021/06/25 09:11:40;;;;;;;;;;;38.70;24.40;;;;;;5011569;28;20123;-64
2021/06/25 09:14:06;;;;;;;;;;;37.50;24.50;;;;;;5011083;28;19921;-64
2021/06/25 09:16:31;;;;;;;;;;;36.90;25.30;;;;;;5012998;28;19918;-65
2021/06/25 09:18:59;;;;;;;;;;;37.00;25.70;;;;;;5012608;28;19918;-64
2021/06/25 09:21:25;;;;;;;;;;;36.60;25.30;;;;;;5011199;28;19924;-63
2021/06/25 09:23:50;;;;;;;;;;;35.30;25.50;;;;;;5012537;28;20279;-63
2021/06/25 09:26:20;;;;;;;;;;;33.60;25.80;;;;;;5012454;28;19943;-62
2021/06/25 09:28:47;;;;;;;;;;;31.80;26.40;;;;;;5012396;28;20056;-63
2021/06/25 09:31:13;;;;;;;;;;;30.20;27.60;;;;;;5012681;28;19937;-63
2021/06/25 09:33:45;;;;;;;;;;;29.00;28.50;;;;;;5010554;28;20381;-63
2021/06/25 09:36:21;;;;;;;;;;;28.10;29.40;;;;;;5012673;28;20007;-63
2021/06/25 09:38:54;;;;;;;;;;;27.40;30.40;;;;;;5011672;28;20378;-63
2021/06/25 09:41:20;;;;;;;;;;;27.20;31.10;;;;;;5012606;28;20411;-63
2021/06/25 09:43:53;;;;;;;;;;;27.90;33.30;;;;;;5011719;28;19926;-63
2021/06/25 09:46:25;;;;;;;;;;;30.30;34.60;;;;;;5027603;28;20444;-64
2021/06/25 09:49:10;;;;;;;;;;;31.10;31.10;;;;;;5011442;28;20028;-62
2021/06/25 09:51:36;;;;;;;;;;;30.50;29.80;;;;;;5012423;28;20033;-63
2021/06/25 09:54:02;;;;;;;;;;;29.50;30.00;;;;;;5010196;28;19967;-62
2021/06/25 09:56:28;;;;;;;;;;;28.60;30.50;;;;;;5012008;28;19921;-64
2021/06/25 09:59:22;;;;;;;;;;;27.90;30.80;;;;;;5011772;28;19918;-63
2021/06/25 10:01:47;;;;;;;;;;;27.10;31.10;;;;;;5008737;28;19925;-62
2021/06/25 10:04:13;;;;;;;;;;;26.10;32.50;;;;;;5013753;28;20332;-62
2021/06/25 10:06:38;;;;;;;;;;;25.60;33.40;;;;;;5030376;28;19917;-63
2021/06/25 10:09:05;;;;;;;;;;;25.60;34.50;;;;;;5031227;28;19998;-62
2021/06/25 10:11:32;;;;;;;;;;;25.90;35.00;;;;;;5031289;28;19968;-62
2021/06/25 10:13:59;;;;;;;;;;;26.50;35.30;;;;;;5030865;28;19921;-62
2021/06/25 10:16:25;;;;;;;;;;;27.40;35.90;;;;;;5031252;28;19917;-62
2021/06/25 10:18:52;;;;;;;;;;;27.60;34.70;;;;;;5029890;28;19975;-62
2021/06/25 10:21:18;;;;;;;;;;;27.40;34.20;;;;;;5031033;28;19917;-62
2021/06/25 10:23:54;;;;;;;;;;;27.20;34.50;;;;;;5029713;28;20277;-62
2021/06/25 10:26:20;;;;;;;;;;;27.10;34.50;;;;;;5014552;28;19971;-62
2021/06/25 10:28:47;;;;;;;;;;;26.70;34.40;;;;;;5031047;28;19944;-62
2021/06/25 10:31:14;;;;;;;;;;;26.20;34.30;;;;;;5030548;28;19987;-63
2021/06/25 10:33:40;;;;;;;;;;;25.70;34.70;;;;;;5017443;28;19929;-62
2021/06/25 10:36:07;;;;;;;;;;;25.20;35.10;;;;;;5027585;28;19913;-62
2021/06/25 10:38:34;;;;;;;;;;;24.80;35.90;;;;;;5030069;28;19917;-62
2021/06/25 10:41:04;;;;;;;;;;;24.50;36.80;;;;;;5029626;28;19960;-61
2021/06/25 10:43:48;;;;;;;;;;;24.40;37.50;;;;;;5029903;28;19927;-61
2021/06/25 10:46:28;;;;;;;;;;;24.50;37.80;;;;;;5030503;28;19995;-62
2021/06/25 10:48:54;;;;;;;;;;;24.70;38.30;;;;;;5030362;28;19917;-62
2021/06/25 10:51:21;;;;;;;;;;;24.80;38.30;;;;;;5030994;28;19947;-61
2021/06/25 10:54:05;;;;;;;;;;;24.90;38.80;;;;;;5012594;28;20308;-62
2021/06/25 10:56:30;;;;;;;;;;;24.90;38.70;;;;;;5030660;28;19917;-61
2021/06/25 10:59:18;;;;;;;;;;;25.10;39.30;;;;;;5011952;28;19932;-61
2021/06/25 11:01:48;;;;;;;;;;;26.90;41.00;;;;;;4989108;28;20009;-62
2021/06/25 11:04:36;;;;;;;;;;;31.90;42.10;;;;;;5027745;28;20008;-63
2021/06/25 11:07:05;;;;;;;;;;;36.30;38.30;;;;;;5030499;28;19917;-63
2021/06/25 11:09:52;;;;;;;;;;;39.60;32.70;;;;;;5016022;28;19921;-63
2021/06/25 11:12:25;;;;;;;;;;;40.10;29.60;;;;;;5033340;28;19924;-62
2021/06/25 11:14:52;;;;;;;;;;;39.20;28.00;;;;;;5034077;28;19921;-63
2021/06/25 11:17:36;;;;;;;;;;;40.40;28.50;;;;;;5013459;28;19932;-63
2021/06/25 11:20:15;;;;;;;;;;;42.10;27.50;;;;;;5033731;28;19968;-64
2021/06/25 11:22:41;;;;;;;;;;;41.90;25.50;;;;;;5030020;28;19974;-63
2021/06/25 11:25:15;;;;;;;;;;;39.00;24.40;;;;;;5031232;28;19921;-62
2021/06/25 11:27:59;;;;;;;;;;;36.70;25.80;;;;;;5020883;28;20389;-62
2021/06/25 11:30:45;;;;;;;;;;;37.90;27.40;;;;;;5033033;28;19918;-64
2021/06/25 11:33:28;;;;;;;;;;;40.10;27.10;;;;;;4999759;28;20012;-63
2021/06/25 11:35:55;;;;;;;;;;;40.80;25.80;;;;;;5029007;28;20208;-62
2021/06/25 11:38:39;;;;;;;;;;;40.20;24.90;;;;;;5032188;28;19920;-62
2021/06/25 11:41:11;;;;;;;;;;;38.70;24.80;;;;;;5034217;28;19924;-62
2021/06/25 11:43:37;;;;;;;;;;;37.10;24.70;;;;;;5033476;28;19928;-62
2021/06/25 11:46:03;;;;;;;;;;;35.40;25.00;;;;;;5034165;28;19917;-61
2021/06/25 11:48:32;;;;;;;;;;;33.90;25.40;;;;;;5033287;28;19924;-62
2021/06/25 11:50:59;;;;;;;;;;;32.50;25.90;;;;;;5033929;28;20005;-61
2021/06/25 11:53:25;;;;;;;;;;;31.60;26.90;;;;;;5033805;28;19983;-61
2021/06/25 11:55:54;;;;;;;;;;;31.70;28.20;;;;;;5033133;28;19928;-63
2021/06/25 11:58:20;;;;;;;;;;;32.20;27.80;;;;;;5015770;28;19921;-63
2021/06/25 12:00:45;;;;;;;;;;;33.00;27.90;;;;;;5032776;28;19925;-62
2021/06/25 12:03:11;;;;;;;;;;;32.70;26.60;;;;;;5032000;28;19917;-62
2021/06/25 12:05:40;;;;;;;;;;;31.80;27.10;;;;;;5030910;28;19921;-61
2021/06/25 12:08:09;;;;;;;;;;;31.80;27.60;;;;;;5031495;28;19956;-61
2021/06/25 12:10:34;;;;;;;;;;;32.00;27.40;;;;;;5032926;28;19929;-62
2021/06/25 12:13:00;;;;;;;;;;;31.40;27.20;;;;;;5029522;28;19917;-62
2021/06/25 12:15:26;;;;;;;;;;;30.50;27.40;;;;;;5031574;28;19917;-62
2021/06/25 12:17:53;;;;;;;;;;;29.70;27.90;;;;;;5031118;28;19917;-63
2021/06/25 12:20:21;;;;;;;;;;;29.20;28.40;;;;;;5030950;28;20165;-63
2021/06/25 12:22:54;;;;;;;;;;;28.90;28.50;;;;;;5031497;28;19921;-63
2021/06/25 12:25:30;;;;;;;;;;;28.60;29.10;;;;;;5031303;28;19959;-63
2021/06/25 12:27:56;;;;;;;;;;;28.70;29.80;;;;;;5031249;28;19917;-64
2021/06/25 12:30:22;;;;;;;;;;;28.60;29.40;;;;;;5032229;28;19940;-65
2021/06/25 12:33:00;;;;;;;;;;;28.30;29.80;;;;;;5031751;28;20274;-63
2021/06/25 12:35:33;;;;;;;;;;;27.80;30.00;;;;;;5030589;28;19917;-63
2021/06/25 12:37:59;;;;;;;;;;;27.40;30.70;;;;;;5032067;28;19917;-63
2021/06/25 12:41:00;;;;;;;;;;;27.30;31.50;;;;;;5032090;28;19918;-63
2021/06/25 12:43:29;;;;;;;;;;;27.30;31.70;;;;;;4970821;28;19922;-66
2021/06/25 12:46:02;;;;;;;;;;;27.40;31.50;;;;;;5020262;28;21291;-66
2021/06/25 12:48:29;;;;;;;;;;;27.30;31.70;;;;;;5031219;28;19968;-65
2021/06/25 12:51:14;;;;;;;;;;;27.10;31.70;;;;;;5031875;28;19923;-65
2021/06/25 12:53:41;;;;;;;;;;;26.90;31.80;;;;;;5013113;28;20289;-65
2021/06/25 12:56:08;;;;;;;;;;;26.70;31.80;;;;;;5031964;28;20503;-65
2021/06/25 12:58:37;;;;;;;;;;;26.40;31.90;;;;;;5031039;28;19924;-64
2021/06/25 13:01:04;;;;;;;;;;;26.10;32.60;;;;;;5031375;28;19923;-64
2021/06/25 13:03:30;;;;;;;;;;;26.00;33.30;;;;;;5014008;28;20332;-63
2021/06/25 13:05:56;;;;;;;;;;;26.10;33.50;;;;;;5013332;28;19917;-63
2021/06/25 13:08:26;;;;;;;;;;;26.00;33.20;;;;;;5031421;28;20293;-64
2021/06/25 13:10:52;;;;;;;;;;;25.90;33.10;;;;;;5031655;28;19924;-64
2021/06/25 13:13:20;;;;;;;;;;;25.80;33.70;;;;;;5031435;28;19971;-63
2021/06/25 13:15:51;;;;;;;;;;;25.80;33.80;;;;;;5013725;28;19921;-63
2021/06/25 13:18:19;;;;;;;;;;;25.80;33.40;;;;;;5030826;28;19924;-63
2021/06/25 13:21:03;;;;;;;;;;;25.70;33.60;;;;;;5031361;28;19924;-63
2021/06/25 13:23:29;;;;;;;;;;;25.60;33.80;;;;;;5030794;28;20451;-65
2021/06/25 13:26:08;;;;;;;;;;;25.50;34.30;;;;;;5031200;28;19961;-64
2021/06/25 13:28:33;;;;;;;;;;;25.60;34.50;;;;;;5029537;28;19936;-63
2021/06/25 13:31:06;;;;;;;;;;;25.60;34.50;;;;;;5030464;28;19917;-63
2021/06/25 13:33:39;;;;;;;;;;;25.60;34.70;;;;;;5030581;28;19921;-67
2021/06/25 13:36:08;;;;;;;;;;;25.50;34.30;;;;;;5031131;28;20366;-64
2021/06/25 13:38:34;;;;;;;;;;;25.40;34.30;;;;;;5030438;28;19917;-63
2021/06/25 13:41:11;;;;;;;;;;;25.30;34.50;;;;;;5031126;28;20270;-64
2021/06/25 13:43:37;;;;;;;;;;;25.30;34.90;;;;;;5030340;28;19951;-63
2021/06/25 13:46:11;;;;;;;;;;;25.30;35.00;;;;;;5030960;28;19940;-64
2021/06/25 13:48:36;;;;;;;;;;;25.20;34.70;;;;;;5030207;28;19917;-63
2021/06/25 13:51:02;;;;;;;;;;;25.10;34.70;;;;;;5030851;28;20382;-64
2021/06/25 13:53:41;;;;;;;;;;;25.00;34.90;;;;;;5030781;28;19921;-63
2021/06/25 13:56:09;;;;;;;;;;;25.00;35.10;;;;;;5030233;28;19960;-64
2021/06/25 13:58:53;;;;;;;;;;;25.00;35.60;;;;;;5030567;28;20372;-64
2021/06/25 14:01:21;;;;;;;;;;;25.10;35.40;;;;;;5030251;28;19952;-64
2021/06/25 14:03:57;;;;;;;;;;;25.00;35.50;;;;;;5030605;28;19921;-63
2021/06/25 14:06:23;;;;;;;;;;;24.80;35.30;;;;;;5030062;28;19992;-63
2021/06/25 14:08:49;;;;;;;;;;;24.50;35.80;;;;;;5030418;28;20350;-63
2021/06/25 14:11:16;;;;;;;;;;;24.30;36.20;;;;;;5030051;28;19932;-64
2021/06/25 14:13:42;;;;;;;;;;;24.10;36.70;;;;;;5030455;28;19921;-64
2021/06/25 14:16:12;;;;;;;;;;;24.10;37.20;;;;;;5030660;28;19917;-63
2021/06/25 14:18:37;;;;;;;;;;;24.20;37.50;;;;;;5029693;28;19936;-63
2021/06/25 14:21:03;;;;;;;;;;;24.30;37.40;;;;;;5030259;28;19943;-64
2021/06/25 14:23:28;;;;;;;;;;;24.40;37.50;;;;;;5030305;28;19918;-64
2021/06/25 14:25:54;;;;;;;;;;;24.50;37.40;;;;;;5012209;28;19927;-64
2021/06/25 14:28:24;;;;;;;;;;;24.60;36.90;;;;;;5030001;28;19917;-64
2021/06/25 14:30:50;;;;;;;;;;;24.60;36.70;;;;;;5012062;28;19917;-63
2021/06/25 14:33:15;;;;;;;;;;;24.60;36.70;;;;;;5028874;28;19971;-64